Time;durP1;ratioP1;P1;durP2;ratioP2;P2;SDS_P1;SDS_P2;PMS_P1;PMS_P2;Temp;Humidity;BMP_temperature;BMP_pressure;BME280_temperature;BME280_humidity;BME280_pressure;Samples;Min_cycle;Max_cycle;Signal;HPM_P1;HPM_P2
2023/07/26 00:01:58;;;;;;;6.20;1.63;;;;;;;;;;5083410;28;20410;-78
2023/07/26 00:04:24;;;;;;;3.10;1.17;;;;;;;;;;5083784;28;20469;-81
2023/07/26 00:06:50;;;;;;;2.47;0.67;;;;;;;;;;5082141;28;20417;-78
2023/07/26 00:09:16;;;;;;;5.50;1.53;;;;;;;;;;5083760;28;20175;-78
2023/07/26 00:11:42;;;;;;;4.13;1.57;;;;;;;;;;5092382;28;20963;-78
2023/07/26 00:14:08;;;;;;;3.27;1.17;;;;;;;;;;5093331;28;20436;-78
2023/07/26 00:16:34;;;;;;;4.03;1.00;;;;;;;;;;5093568;28;20172;-78
2023/07/26 00:19:00;;;;;;;3.40;0.80;;;;;;;;;;5093769;28;20406;-78
2023/07/26 00:21:26;;;;;;;4.10;1.10;;;;;;;;;;5093642;28;20735;-78
2023/07/26 00:23:52;;;;;;;2.30;0.40;;;;;;;;;;5093856;28;20476;-78
2023/07/26 00:26:18;;;;;;;4.23;1.50;;;;;;;;;;5093549;28;20478;-78
2023/07/26 00:28:43;;;;;;;2.37;0.87;;;;;;;;;;5091815;28;20624;-78
2023/07/26 00:31:09;;;;;;;2.53;1.00;;;;;;;;;;5093677;28;20164;-78
2023/07/26 00:33:35;;;;;;;6.17;0.60;;;;;;;;;;5093397;28;20183;-82
2023/07/26 00:36:01;;;;;;;5.30;1.30;;;;;;;;;;5093359;28;20207;-78
2023/07/26 00:38:27;;;;;;;3.00;0.93;;;;;;;;;;5093350;28;20446;-78
2023/07/26 00:40:53;;;;;;;2.33;0.50;;;;;;;;;;5093070;28;20675;-78
2023/07/26 00:43:19;;;;;;;5.90;1.40;;;;;;;;;;5091251;28;21122;-78
2023/07/26 00:45:45;;;;;;;4.47;1.40;;;;;;;;;;5093858;28;20179;-78
2023/07/26 00:48:12;;;;;;;3.60;0.60;;;;;;;;;;5093262;28;20403;-82
2023/07/26 00:50:41;;;;;;;6.33;0.87;;;;;;;;;;5093177;28;20788;-78
2023/07/26 00:53:07;;;;;;;4.60;1.00;;;;;;;;;;5093314;28;20885;-78
2023/07/26 00:55:34;;;;;;;4.07;1.57;;;;;;;;;;5093168;28;20417;-79
2023/07/26 00:58:01;;;;;;;2.70;0.97;;;;;;;;;;5092612;28;20456;-78
2023/07/26 01:00:26;;;;;;;3.20;1.87;;;;;;;;;;5093064;28;20920;-82
2023/07/26 01:02:52;;;;;;;3.00;1.07;;;;;;;;;;5092967;28;20506;-82
2023/07/26 01:05:19;;;;;;;2.13;1.00;;;;;;;;;;5093006;28;20901;-79
2023/07/26 01:07:48;;;;;;;5.60;0.87;;;;;;;;;;5091769;28;20996;-78
2023/07/26 01:10:16;;;;;;;4.20;1.30;;;;;;;;;;5093016;28;20422;-78
2023/07/26 01:13:21;;;;;;;3.67;1.40;;;;;;;;;;5092643;28;20433;-78
2023/07/26 01:15:48;;;;;;;3.43;0.87;;;;;;;;;;5030711;28;20453;-82
2023/07/26 01:18:15;;;;;;;3.27;0.90;;;;;;;;;;5030705;28;20881;-78
2023/07/26 01:20:44;;;;;;;6.90;1.60;;;;;;;;;;5060691;28;20423;-78
2023/07/26 01:23:10;;;;;;;3.03;0.60;;;;;;;;;;5092839;28;20459;-81
2023/07/26 01:25:36;;;;;;;8.13;1.07;;;;;;;;;;5092795;28;20512;-78
2023/07/26 01:28:03;;;;;;;3.53;0.90;;;;;;;;;;5092390;28;20409;-83
2023/07/26 01:30:35;;;;;;;2.30;0.60;;;;;;;;;;5092853;28;20434;-77
2023/07/26 01:33:11;;;;;;;3.23;0.80;;;;;;;;;;5092711;28;20407;-78
2023/07/26 01:35:38;;;;;;;3.57;0.90;;;;;;;;;;5092810;28;20424;-82
2023/07/26 01:38:05;;;;;;;3.77;0.70;;;;;;;;;;5092617;28;20420;-80
2023/07/26 01:40:31;;;;;;;4.10;0.80;;;;;;;;;;5092755;28;20410;-78
2023/07/26 01:42:57;;;;;;;3.83;0.53;;;;;;;;;;5092080;28;20970;-78
2023/07/26 01:45:23;;;;;;;3.70;0.80;;;;;;;;;;5092650;28;20895;-83
2023/07/26 01:47:50;;;;;;;1.67;0.60;;;;;;;;;;5092587;28;20407;-79
2023/07/26 01:50:16;;;;;;;2.13;1.30;;;;;;;;;;5092566;28;20401;-79
2023/07/26 01:52:41;;;;;;;5.83;2.13;;;;;;;;;;5093802;28;20454;-78
2023/07/26 01:55:08;;;;;;;2.17;0.90;;;;;;;;;;5096381;28;20402;-82
2023/07/26 01:57:33;;;;;;;4.60;0.80;;;;;;;;;;5096057;28;20938;-77
2023/07/26 02:00:00;;;;;;;2.47;1.07;;;;;;;;;;5096393;28;20408;-77
2023/07/26 02:02:26;;;;;;;3.47;1.63;;;;;;;;;;5096439;28;20452;-77
2023/07/26 02:04:51;;;;;;;5.10;0.80;;;;;;;;;;5096364;28;20516;-78
2023/07/26 02:07:17;;;;;;;2.00;0.40;;;;;;;;;;5096244;28;20402;-77
2023/07/26 02:09:44;;;;;;;4.07;1.23;;;;;;;;;;5096080;28;20179;-78
2023/07/26 02:12:09;;;;;;;3.73;0.60;;;;;;;;;;5095792;28;20419;-78
2023/07/26 02:14:35;;;;;;;4.13;1.13;;;;;;;;;;5096089;28;20414;-78
2023/07/26 02:17:01;;;;;;;2.60;0.77;;;;;;;;;;5094677;28;20902;-78
2023/07/26 02:19:27;;;;;;;3.97;0.90;;;;;;;;;;5096009;28;20417;-79
2023/07/26 02:21:53;;;;;;;4.00;1.33;;;;;;;;;;5095944;28;20176;-78
2023/07/26 02:24:19;;;;;;;1.63;0.60;;;;;;;;;;5095733;28;20470;-78
2023/07/26 02:26:48;;;;;;;4.17;0.80;;;;;;;;;;5095390;28;20898;-78
2023/07/26 02:29:13;;;;;;;2.17;0.93;;;;;;;;;;5095759;28;20449;-78
2023/07/26 02:31:40;;;;;;;3.43;1.37;;;;;;;;;;5095766;28;20438;-82
2023/07/26 02:34:06;;;;;;;2.50;1.23;;;;;;;;;;5095630;28;20259;-79
2023/07/26 02:36:32;;;;;;;2.90;1.03;;;;;;;;;;5094363;28;20489;-79
2023/07/26 02:38:57;;;;;;;2.87;0.80;;;;;;;;;;5094337;28;20457;-78
2023/07/26 02:41:23;;;;;;;1.87;0.70;;;;;;;;;;5095181;28;20406;-78
2023/07/26 02:43:49;;;;;;;4.10;1.33;;;;;;;;;;5095337;28;20231;-78
2023/07/26 02:46:15;;;;;;;3.40;0.83;;;;;;;;;;5095419;28;20420;-78
2023/07/26 02:48:41;;;;;;;3.07;1.40;;;;;;;;;;5094140;28;20568;-78
2023/07/26 02:51:07;;;;;;;2.90;0.67;;;;;;;;;;5095334;28;20199;-78
2023/07/26 02:53:33;;;;;;;5.40;0.70;;;;;;;;;;5094101;28;20206;-78
2023/07/26 02:55:59;;;;;;;6.20;0.63;;;;;;;;;;5095223;28;20789;-78
2023/07/26 02:58:25;;;;;;;3.13;2.47;;;;;;;;;;5094935;28;20266;-78
2023/07/26 03:00:54;;;;;;;3.10;1.23;;;;;;;;;;5095122;28;20247;-79
2023/07/26 03:03:20;;;;;;;5.33;1.30;;;;;;;;;;5094952;28;20496;-78
2023/07/26 03:05:52;;;;;;;3.07;0.57;;;;;;;;;;5095068;28;20461;-78
2023/07/26 03:08:18;;;;;;;3.97;1.00;;;;;;;;;;5095033;28;20182;-78
2023/07/26 03:10:44;;;;;;;3.70;1.30;;;;;;;;;;5095026;28;20892;-78
2023/07/26 03:13:10;;;;;;;3.13;0.60;;;;;;;;;;5094612;28;20756;-79
2023/07/26 03:15:39;;;;;;;5.00;0.87;;;;;;;;;;5094903;28;20214;-78
2023/07/26 03:18:05;;;;;;;2.63;0.70;;;;;;;;;;5094863;28;20174;-79
2023/07/26 03:20:31;;;;;;;3.47;1.30;;;;;;;;;;5094795;28;20899;-78
2023/07/26 03:22:57;;;;;;;3.80;1.33;;;;;;;;;;5094656;28;20459;-78
2023/07/26 03:25:22;;;;;;;4.47;1.20;;;;;;;;;;5093432;28;20305;-78
2023/07/26 03:27:48;;;;;;;4.57;1.13;;;;;;;;;;5092969;28;20202;-78
2023/07/26 03:30:14;;;;;;;1.93;1.20;;;;;;;;;;5094671;28;20181;-78
2023/07/26 03:32:40;;;;;;;5.23;1.70;;;;;;;;;;5093243;28;20178;-79
2023/07/26 03:35:06;;;;;;;5.63;1.53;;;;;;;;;;5094499;28;20181;-78
2023/07/26 03:37:32;;;;;;;7.43;1.50;;;;;;;;;;5094448;28;20221;-78
2023/07/26 03:40:01;;;;;;;2.70;1.23;;;;;;;;;;5093089;28;20813;-78
2023/07/26 03:42:27;;;;;;;4.77;1.37;;;;;;;;;;5093750;28;20226;-78
2023/07/26 03:44:53;;;;;;;2.40;1.20;;;;;;;;;;5094241;28;20468;-78
2023/07/26 03:47:19;;;;;;;3.40;1.77;;;;;;;;;;5094240;28;20462;-78
2023/07/26 03:49:45;;;;;;;3.38;1.58;;;;;;;;;;5093530;28;20826;-78
2023/07/26 03:52:11;;;;;;;7.00;2.30;;;;;;;;;;5094168;28;20222;-78
2023/07/26 03:54:37;;;;;;;5.60;3.30;;;;;;;;;;5094162;28;20179;-78
2023/07/26 03:57:03;;;;;;;3.97;1.20;;;;;;;;;;5093827;28;20637;-82
2023/07/26 03:59:29;;;;;;;3.17;1.17;;;;;;;;;;5093880;28;20413;-77
2023/07/26 04:01:55;;;;;;;5.03;1.30;;;;;;;;;;5093799;28;20440;-78
2023/07/26 04:04:21;;;;;;;2.97;1.13;;;;;;;;;;5093873;28;20242;-78
2023/07/26 04:06:47;;;;;;;3.33;0.83;;;;;;;;;;5093840;28;20410;-79
2023/07/26 04:09:12;;;;;;;4.93;0.70;;;;;;;;;;5093720;28;20181;-78
2023/07/26 04:11:38;;;;;;;4.50;1.27;;;;;;;;;;5093335;28;20288;-82
2023/07/26 04:14:04;;;;;;;3.90;1.30;;;;;;;;;;5092453;28;20176;-78
2023/07/26 04:16:30;;;;;;;3.43;0.93;;;;;;;;;;5093108;28;20736;-78
2023/07/26 04:18:56;;;;;;;4.73;1.50;;;;;;;;;;5093559;28;20414;-80
2023/07/26 04:21:28;;;;;;;4.23;1.37;;;;;;;;;;5093591;28;20229;-78
2023/07/26 04:23:54;;;;;;;4.40;1.30;;;;;;;;;;5092136;28;20492;-78
2023/07/26 04:26:20;;;;;;;4.30;1.70;;;;;;;;;;5093134;28;20403;-78
2023/07/26 04:28:46;;;;;;;3.83;1.10;;;;;;;;;;5093405;28;20198;-79
2023/07/26 04:31:12;;;;;;;3.10;0.83;;;;;;;;;;5083830;28;20445;-78
2023/07/26 04:33:37;;;;;;;3.90;1.33;;;;;;;;;;5072006;28;20184;-78
2023/07/26 04:36:03;;;;;;;5.13;1.37;;;;;;;;;;5073144;28;20451;-78
2023/07/26 04:38:29;;;;;;;2.97;1.67;;;;;;;;;;5073220;28;20528;-79
2023/07/26 04:40:57;;;;;;;3.90;1.00;;;;;;;;;;5077456;28;20914;-78
2023/07/26 04:43:23;;;;;;;7.13;1.87;;;;;;;;;;5071582;28;20558;-78
2023/07/26 04:45:50;;;;;;;3.00;1.40;;;;;;;;;;5079550;28;20421;-78
2023/07/26 04:48:17;;;;;;;3.80;1.40;;;;;;;;;;5088470;28;20416;-78
2023/07/26 04:50:43;;;;;;;5.13;0.83;;;;;;;;;;5083450;28;20411;-78
2023/07/26 04:53:09;;;;;;;4.50;1.53;;;;;;;;;;5083612;28;20414;-78
2023/07/26 04:55:40;;;;;;;3.27;1.33;;;;;;;;;;5086998;28;20824;-79
2023/07/26 04:58:06;;;;;;;2.50;0.97;;;;;;;;;;5092304;28;20469;-79
2023/07/26 05:00:32;;;;;;;3.20;1.47;;;;;;;;;;5091313;28;20813;-78
2023/07/26 05:02:58;;;;;;;3.87;1.17;;;;;;;;;;5091612;28;20181;-78
2023/07/26 05:05:23;;;;;;;6.30;1.00;;;;;;;;;;5092210;28;20450;-79
2023/07/26 05:07:49;;;;;;;3.60;0.77;;;;;;;;;;5091031;28;20169;-79
2023/07/26 05:10:15;;;;;;;3.63;1.23;;;;;;;;;;5090895;28;20264;-80
2023/07/26 05:12:41;;;;;;;3.00;1.47;;;;;;;;;;5091951;28;20178;-79
2023/07/26 05:15:07;;;;;;;4.83;0.87;;;;;;;;;;5092870;28;20399;-78
2023/07/26 05:17:33;;;;;;;4.67;1.33;;;;;;;;;;5093052;28;20172;-79
2023/07/26 05:19:59;;;;;;;2.83;1.27;;;;;;;;;;5091779;28;20893;-79
2023/07/26 05:22:25;;;;;;;2.30;1.00;;;;;;;;;;5092890;28;20427;-79
2023/07/26 05:24:51;;;;;;;4.43;1.10;;;;;;;;;;5091550;28;20485;-78
2023/07/26 05:27:17;;;;;;;3.50;1.10;;;;;;;;;;5093048;28;20556;-78
2023/07/26 05:29:43;;;;;;;4.43;1.07;;;;;;;;;;5097022;28;20179;-78
2023/07/26 05:32:09;;;;;;;3.97;1.10;;;;;;;;;;5096933;28;20414;-80
2023/07/26 05:34:35;;;;;;;4.60;1.60;;;;;;;;;;5096968;28;20589;-78
2023/07/26 05:37:02;;;;;;;4.07;1.53;;;;;;;;;;5096874;28;20403;-78
2023/07/26 05:39:27;;;;;;;4.07;1.27;;;;;;;;;;5096804;28;20416;-78
2023/07/26 05:41:53;;;;;;;8.30;1.83;;;;;;;;;;5096244;28;20491;-78
2023/07/26 05:44:19;;;;;;;4.40;0.83;;;;;;;;;;5096700;28;20614;-79
2023/07/26 05:46:47;;;;;;;3.50;1.13;;;;;;;;;;5095426;28;20182;-78
2023/07/26 05:49:13;;;;;;;4.23;1.30;;;;;;;;;;5096721;28;20178;-79
2023/07/26 05:51:39;;;;;;;6.90;1.33;;;;;;;;;;5096546;28;20416;-79
2023/07/26 05:54:05;;;;;;;3.63;0.80;;;;;;;;;;5096538;28;20909;-79
2023/07/26 05:56:31;;;;;;;3.17;0.97;;;;;;;;;;5096122;28;20177;-79
2023/07/26 05:58:57;;;;;;;8.90;1.80;;;;;;;;;;5096322;28;20247;-79
2023/07/26 06:01:23;;;;;;;3.70;1.00;;;;;;;;;;5096337;28;20417;-78
2023/07/26 06:03:49;;;;;;;3.83;0.90;;;;;;;;;;5096397;28;20248;-83
2023/07/26 06:06:16;;;;;;;3.80;0.77;;;;;;;;;;5096237;28;20455;-78
2023/07/26 06:08:42;;;;;;;2.03;0.63;;;;;;;;;;5096293;28;20412;-78
2023/07/26 06:11:08;;;;;;;1.50;0.40;;;;;;;;;;5095989;28;20399;-83
2023/07/26 06:13:34;;;;;;;3.17;0.60;;;;;;;;;;5096140;28;20167;-79
2023/07/26 06:16:00;;;;;;;2.83;0.37;;;;;;;;;;5096122;28;20413;-83
2023/07/26 06:18:27;;;;;;;2.73;0.80;;;;;;;;;;5096003;28;20281;-81
2023/07/26 06:20:52;;;;;;;3.80;0.87;;;;;;;;;;5095975;28;20407;-78
2023/07/26 06:23:18;;;;;;;4.07;0.80;;;;;;;;;;5095795;28;21033;-82
2023/07/26 06:25:44;;;;;;;3.20;1.07;;;;;;;;;;5095622;28;20179;-78
2023/07/26 06:28:10;;;;;;;3.60;0.53;;;;;;;;;;5095926;28;20767;-79
2023/07/26 06:30:36;;;;;;;3.37;0.80;;;;;;;;;;5095850;28;20183;-78
2023/07/26 06:33:02;;;;;;;1.60;0.60;;;;;;;;;;5095836;28;20973;-81
2023/07/26 06:35:29;;;;;;;4.90;1.53;;;;;;;;;;5095788;28;20302;-78
2023/07/26 06:37:55;;;;;;;2.77;0.83;;;;;;;;;;5095199;28;20248;-79
2023/07/26 06:40:20;;;;;;;4.23;1.30;;;;;;;;;;5095685;28;20416;-80
2023/07/26 06:42:46;;;;;;;2.00;0.43;;;;;;;;;;5095058;28;20219;-79
2023/07/26 06:45:15;;;;;;;5.10;1.03;;;;;;;;;;5094270;28;20210;-84
2023/07/26 06:47:41;;;;;;;3.37;0.80;;;;;;;;;;5095544;28;20171;-79
2023/07/26 06:50:07;;;;;;;3.07;0.70;;;;;;;;;;5095435;28;20436;-79
2023/07/26 06:52:33;;;;;;;4.63;1.07;;;;;;;;;;5095380;28;20168;-78
2023/07/26 06:54:59;;;;;;;3.70;0.50;;;;;;;;;;5095423;28;20420;-84
2023/07/26 06:57:25;;;;;;;3.53;0.67;;;;;;;;;;5095015;28;20513;-78
2023/07/26 06:59:51;;;;;;;3.73;0.80;;;;;;;;;;5095331;28;20408;-79
2023/07/26 07:02:17;;;;;;;4.67;1.20;;;;;;;;;;5095218;28;20416;-78
2023/07/26 07:04:42;;;;;;;1.53;0.30;;;;;;;;;;5095121;28;20609;-77
2023/07/26 07:07:08;;;;;;;3.87;1.10;;;;;;;;;;5093900;28;20178;-78
2023/07/26 07:09:34;;;;;;;4.33;0.60;;;;;;;;;;5095152;28;20176;-79
2023/07/26 07:12:04;;;;;;;3.23;1.13;;;;;;;;;;5094795;28;20182;-78
2023/07/26 07:14:29;;;;;;;4.53;1.40;;;;;;;;;;5094995;28;20202;-79
2023/07/26 07:16:55;;;;;;;4.30;0.60;;;;;;;;;;5095047;28;20406;-79
2023/07/26 07:19:24;;;;;;;3.30;0.47;;;;;;;;;;5094895;28;20175;-78
2023/07/26 07:21:53;;;;;;;3.47;1.00;;;;;;;;;;5094885;28;20628;-79
2023/07/26 07:24:22;;;;;;;4.33;0.53;;;;;;;;;;5094737;28;20477;-85
2023/07/26 07:26:48;;;;;;;2.83;0.90;;;;;;;;;;5094450;28;20440;-79
2023/07/26 07:29:14;;;;;;;3.67;0.83;;;;;;;;;;5094650;28;20921;-79
2023/07/26 07:31:40;;;;;;;1.60;0.47;;;;;;;;;;5094518;28;20503;-80
2023/07/26 07:34:06;;;;;;;4.50;0.60;;;;;;;;;;5093320;28;20455;-81
2023/07/26 07:36:32;;;;;;;3.37;0.87;;;;;;;;;;5093283;28;20167;-78
2023/07/26 07:38:58;;;;;;;3.23;1.00;;;;;;;;;;5094437;28;20632;-83
2023/07/26 07:41:24;;;;;;;3.50;0.67;;;;;;;;;;5092787;28;20205;-80
2023/07/26 07:43:49;;;;;;;2.43;0.53;;;;;;;;;;5094215;28;20485;-80
2023/07/26 07:46:15;;;;;;;5.37;1.13;;;;;;;;;;5094387;28;20171;-79
2023/07/26 07:48:42;;;;;;;3.47;0.90;;;;;;;;;;5093039;28;20172;-79
2023/07/26 07:51:08;;;;;;;1.67;0.40;;;;;;;;;;5093465;28;20168;-79
2023/07/26 07:53:34;;;;;;;4.10;0.67;;;;;;;;;;5094182;28;20421;-78
2023/07/26 07:55:59;;;;;;;3.37;0.50;;;;;;;;;;5093840;28;20301;-79
2023/07/26 07:58:26;;;;;;;4.33;0.70;;;;;;;;;;5094141;28;20406;-80
2023/07/26 08:00:56;;;;;;;3.47;0.97;;;;;;;;;;5094274;28;20617;-78
2023/07/26 08:03:22;;;;;;;2.47;0.53;;;;;;;;;;5093995;28;20508;-79
2023/07/26 08:05:48;;;;;;;3.67;0.60;;;;;;;;;;5093980;28;20414;-80
2023/07/26 08:08:14;;;;;;;2.67;0.60;;;;;;;;;;5092649;28;20168;-79
2023/07/26 08:10:40;;;;;;;3.37;1.03;;;;;;;;;;5093477;28;20172;-79
2023/07/26 08:13:06;;;;;;;4.67;0.60;;;;;;;;;;5093715;28;20169;-85
2023/07/26 08:15:32;;;;;;;2.50;0.50;;;;;;;;;;5093898;28;20179;-80
2023/07/26 08:17:59;;;;;;;3.77;0.60;;;;;;;;;;5093818;28;20165;-78
2023/07/26 08:20:25;;;;;;;4.83;0.63;;;;;;;;;;5093712;28;20421;-81
2023/07/26 08:22:51;;;;;;;3.27;0.70;;;;;;;;;;5093732;28;20456;-79
2023/07/26 08:25:17;;;;;;;2.70;0.73;;;;;;;;;;5093612;28;20964;-78
2023/07/26 08:27:43;;;;;;;2.03;0.67;;;;;;;;;;5093301;28;20211;-80
2023/07/26 08:30:09;;;;;;;3.70;0.60;;;;;;;;;;5092296;28;20183;-80
2023/07/26 08:32:35;;;;;;;1.77;0.40;;;;;;;;;;5093484;28;20410;-79
2023/07/26 08:35:01;;;;;;;4.50;0.70;;;;;;;;;;5093571;28;20513;-80
2023/07/26 08:37:27;;;;;;;3.27;0.50;;;;;;;;;;5093696;28;20552;-80
2023/07/26 08:39:53;;;;;;;4.07;0.70;;;;;;;;;;5093489;28;20425;-80
2023/07/26 08:42:19;;;;;;;2.73;0.70;;;;;;;;;;5092758;28;20220;-79
2023/07/26 08:44:48;;;;;;;3.60;1.17;;;;;;;;;;5093205;28;20235;-79
2023/07/26 08:47:14;;;;;;;3.17;0.67;;;;;;;;;;5093382;28;20509;-79
2023/07/26 08:49:40;;;;;;;3.00;0.60;;;;;;;;;;5093364;28;20442;-79
2023/07/26 08:52:06;;;;;;;3.13;0.63;;;;;;;;;;5093283;28;20248;-79
2023/07/26 08:54:33;;;;;;;2.87;0.50;;;;;;;;;;5093218;28;20963;-79
2023/07/26 08:56:59;;;;;;;1.80;0.83;;;;;;;;;;5091448;28;20406;-80
2023/07/26 08:59:25;;;;;;;2.63;0.87;;;;;;;;;;5093156;28;20436;-79
2023/07/26 09:01:54;;;;;;;1.20;0.30;;;;;;;;;;5092874;28;20179;-79
2023/07/26 09:04:19;;;;;;;2.23;0.70;;;;;;;;;;5093011;28;20472;-79
2023/07/26 09:06:48;;;;;;;7.63;1.47;;;;;;;;;;5093249;28;20451;-78
2023/07/26 09:09:14;;;;;;;3.93;1.00;;;;;;;;;;5093038;28;20989;-77
2023/07/26 09:11:50;;;;;;;4.53;0.80;;;;;;;;;;5092689;28;20450;-78
2023/07/26 09:14:16;;;;;;;3.47;0.83;;;;;;;;;;5093066;28;20405;-78
2023/07/26 09:16:42;;;;;;;2.53;1.23;;;;;;;;;;5092943;28;20416;-78
2023/07/26 09:19:08;;;;;;;4.67;0.77;;;;;;;;;;5092911;28;20438;-78
2023/07/26 09:21:35;;;;;;;3.33;0.90;;;;;;;;;;5092953;28;20172;-78
2023/07/26 09:24:03;;;;;;;2.07;0.80;;;;;;;;;;5092896;28;20210;-79
2023/07/26 09:26:36;;;;;;;1.77;0.43;;;;;;;;;;5092586;28;20440;-78
2023/07/26 09:29:10;;;;;;;1.33;0.40;;;;;;;;;;5092858;28;20756;-78
2023/07/26 09:31:38;;;;;;;4.13;0.40;;;;;;;;;;5093014;28;20429;-82
2023/07/26 09:34:05;;;;;;;2.03;0.30;;;;;;;;;;5092810;28;20391;-80
2023/07/26 09:36:40;;;;;;;1.77;0.23;;;;;;;;;;5093024;28;20426;-78
2023/07/26 09:39:06;;;;;;;0.93;0.40;;;;;;;;;;5092849;28;20415;-78
2023/07/26 09:41:32;;;;;;;1.23;0.30;;;;;;;;;;5092510;28;20911;-80
2023/07/26 09:44:00;;;;;;;1.17;0.20;;;;;;;;;;5092579;28;20527;-79
2023/07/26 09:46:26;;;;;;;1.20;0.33;;;;;;;;;;5092800;28;20185;-79
2023/07/26 09:48:57;;;;;;;3.07;0.50;;;;;;;;;;5092709;28;20411;-78
2023/07/26 09:51:24;;;;;;;0.90;0.20;;;;;;;;;;5092611;28;20411;-79
2023/07/26 09:53:50;;;;;;;1.20;0.30;;;;;;;;;;5092786;28;20440;-80
2023/07/26 09:56:17;;;;;;;0.80;0.50;;;;;;;;;;5091009;28;20458;-80
2023/07/26 09:58:43;;;;;;;1.10;0.30;;;;;;;;;;5091311;28;20422;-81
2023/07/26 10:01:11;;;;;;;1.07;0.20;;;;;;;;;;5092471;28;20485;-77
2023/07/26 10:03:43;;;;;;;2.10;0.37;;;;;;;;;;5092400;28;20552;-79
2023/07/26 10:06:09;;;;;;;1.17;0.30;;;;;;;;;;5092594;28;20425;-80
2023/07/26 10:08:35;;;;;;;0.70;0.40;;;;;;;;;;5091253;28;20941;-80
2023/07/26 10:11:02;;;;;;;1.10;0.27;;;;;;;;;;5092079;28;20437;-80
2023/07/26 10:13:28;;;;;;;1.53;0.30;;;;;;;;;;5093233;28;20406;-84
2023/07/26 10:15:56;;;;;;;0.60;0.30;;;;;;;;;;5096174;28;20406;-80
2023/07/26 10:18:22;;;;;;;1.57;0.20;;;;;;;;;;5094809;28;20426;-79
2023/07/26 10:20:48;;;;;;;2.63;0.20;;;;;;;;;;5096099;28;20407;-79
2023/07/26 10:23:14;;;;;;;2.60;0.47;;;;;;;;;;5095891;28;20831;-79
2023/07/26 10:25:41;;;;;;;1.13;0.33;;;;;;;;;;5095615;28;20514;-81
2023/07/26 10:28:07;;;;;;;1.43;0.30;;;;;;;;;;5095872;28;20445;-79
2023/07/26 10:30:33;;;;;;;1.27;0.40;;;;;;;;;;5095901;28;20460;-79
2023/07/26 10:33:02;;;;;;;1.37;0.37;;;;;;;;;;5095839;28;20754;-81
2023/07/26 10:35:34;;;;;;;1.70;0.20;;;;;;;;;;5094522;28;20176;-85
2023/07/26 10:38:03;;;;;;;1.00;0.20;;;;;;;;;;5095717;28;20804;-80
2023/07/26 10:40:33;;;;;;;1.30;0.33;;;;;;;;;;5095353;28;20422;-80
2023/07/26 10:42:59;;;;;;;1.33;0.40;;;;;;;;;;5094330;28;20997;-82
2023/07/26 10:45:54;;;;;;;0.70;0.37;;;;;;;;;;5095698;28;20426;-79
2023/07/26 10:48:27;;;;;;;1.47;0.23;;;;;;;;;;5090727;28;20773;-80
2023/07/26 10:50:57;;;;;;;1.40;0.40;;;;;;;;;;5095450;28;20971;-78
2023/07/26 10:53:39;;;;;;;1.13;0.20;;;;;;;;;;5095435;28;20418;-83
2023/07/26 10:56:07;;;;;;;1.43;0.40;;;;;;;;;;5095004;28;20440;-80
2023/07/26 10:58:33;;;;;;;1.20;0.30;;;;;;;;;;5095394;28;20818;-80
2023/07/26 11:01:03;;;;;;;1.90;0.60;;;;;;;;;;5095289;28;20414;-80
2023/07/26 11:03:29;;;;;;;2.03;0.50;;;;;;;;;;5095171;28;20200;-79
2023/07/26 11:05:56;;;;;;;1.97;0.60;;;;;;;;;;5095207;28;20422;-79
2023/07/26 11:08:22;;;;;;;1.77;0.30;;;;;;;;;;5095203;28;20431;-80
2023/07/26 11:10:51;;;;;;;1.47;0.33;;;;;;;;;;5094699;28;20422;-83
2023/07/26 11:13:21;;;;;;;0.87;0.40;;;;;;;;;;5094999;28;20406;-79
2023/07/26 11:15:48;;;;;;;1.17;0.27;;;;;;;;;;5095028;28;20559;-79
2023/07/26 11:18:14;;;;;;;1.40;0.47;;;;;;;;;;5094857;28;20402;-81
2023/07/26 11:20:44;;;;;;;1.87;0.30;;;;;;;;;;5094854;28;20418;-79
2023/07/26 11:23:23;;;;;;;1.67;0.50;;;;;;;;;;5094695;28;20407;-79
2023/07/26 11:25:50;;;;;;;1.17;0.30;;;;;;;;;;5094381;28;20512;-79
2023/07/26 11:28:17;;;;;;;1.53;0.30;;;;;;;;;;5094681;28;20757;-78
2023/07/26 11:30:47;;;;;;;1.73;0.80;;;;;;;;;;5094718;28;20945;-79
2023/07/26 11:33:13;;;;;;;2.13;0.50;;;;;;;;;;5094629;28;20900;-80
2023/07/26 11:35:41;;;;;;;0.97;0.20;;;;;;;;;;5093358;28;20440;-78
2023/07/26 11:38:07;;;;;;;1.83;0.30;;;;;;;;;;5094566;28;20500;-80
2023/07/26 11:40:38;;;;;;;1.73;0.20;;;;;;;;;;5094212;28;20899;-78
2023/07/26 11:43:06;;;;;;;1.13;0.60;;;;;;;;;;5094223;28;20454;-78
2023/07/26 11:45:32;;;;;;;3.13;0.50;;;;;;;;;;5094443;28;20448;-79
2023/07/26 11:47:58;;;;;;;1.63;0.43;;;;;;;;;;5094354;28;20751;-80
2023/07/26 11:50:24;;;;;;;1.03;0.43;;;;;;;;;;5094269;28;20475;-82
2023/07/26 11:53:04;;;;;;;1.13;0.20;;;;;;;;;;5094303;28;20177;-82
2023/07/26 11:55:30;;;;;;;1.53;0.63;;;;;;;;;;5093842;28;20825;-82
2023/07/26 11:57:56;;;;;;;1.90;0.50;;;;;;;;;;5094172;28;20501;-84
2023/07/26 12:00:22;;;;;;;1.50;0.60;;;;;;;;;;5093986;28;20427;-86
2023/07/26 12:02:48;;;;;;;1.50;0.23;;;;;;;;;;5094070;28;20195;-83
2023/07/26 12:05:15;;;;;;;2.93;0.63;;;;;;;;;;5093988;28;20474;-82
2023/07/26 12:07:52;;;;;;;1.70;0.67;;;;;;;;;;5093966;28;20222;-82
2023/07/26 12:10:19;;;;;;;1.33;0.50;;;;;;;;;;5093618;28;20424;-83
2023/07/26 12:12:45;;;;;;;1.13;0.60;;;;;;;;;;5093783;28;20995;-83
2023/07/26 12:15:11;;;;;;;1.60;0.30;;;;;;;;;;5091386;28;20465;-83
2023/07/26 12:17:53;;;;;;;1.00;0.40;;;;;;;;;;5078363;28;20938;-83
2023/07/26 12:20:20;;;;;;;2.40;0.47;;;;;;;;;;5079344;28;20415;-81
2023/07/26 12:22:50;;;;;;;2.03;0.60;;;;;;;;;;5076828;28;20836;-80
2023/07/26 12:25:18;;;;;;;4.33;0.90;;;;;;;;;;5072317;28;20474;-79
2023/07/26 12:27:46;;;;;;;2.10;0.53;;;;;;;;;;5071589;28;20418;-79
2023/07/26 12:30:13;;;;;;;2.60;0.50;;;;;;;;;;5072731;28;20819;-83
2023/07/26 12:32:39;;;;;;;3.27;0.60;;;;;;;;;;5072821;28;20407;-82
2023/07/26 12:35:18;;;;;;;2.70;0.90;;;;;;;;;;5072735;28;20419;-80
2023/07/26 12:37:44;;;;;;;2.40;0.63;;;;;;;;;;5072566;28;20801;-82
2023/07/26 12:40:10;;;;;;;3.27;0.63;;;;;;;;;;5072579;28;20403;-81
2023/07/26 12:42:36;;;;;;;3.93;0.50;;;;;;;;;;5072536;28;20693;-79
2023/07/26 12:45:03;;;;;;;1.20;0.70;;;;;;;;;;5072598;28;20509;-78
2023/07/26 12:47:29;;;;;;;2.10;0.57;;;;;;;;;;5072818;28;20167;-83
2023/07/26 12:49:55;;;;;;;1.90;0.80;;;;;;;;;;5071365;28;20450;-78
2023/07/26 12:52:21;;;;;;;1.70;0.40;;;;;;;;;;5084693;28;20416;-80
2023/07/26 12:54:47;;;;;;;3.57;0.30;;;;;;;;;;5092376;28;20410;-79
2023/07/26 12:57:13;;;;;;;1.67;0.50;;;;;;;;;;5093032;28;20528;-79
2023/07/26 12:59:39;;;;;;;1.70;0.97;;;;;;;;;;5092927;28;20530;-81
2023/07/26 13:02:05;;;;;;;1.43;0.37;;;;;;;;;;5092743;28;20612;-80
2023/07/26 13:04:31;;;;;;;2.73;0.47;;;;;;;;;;5092719;28;20477;-78
2023/07/26 13:06:57;;;;;;;2.30;0.47;;;;;;;;;;5091393;28;20756;-81
2023/07/26 13:09:23;;;;;;;3.43;0.70;;;;;;;;;;5092799;28;20466;-79
2023/07/26 13:11:49;;;;;;;1.50;0.60;;;;;;;;;;5092406;28;20225;-80
2023/07/26 13:14:15;;;;;;;1.77;0.80;;;;;;;;;;5092660;28;20258;-82
2023/07/26 13:16:41;;;;;;;0.90;0.43;;;;;;;;;;5092676;28;20187;-79
2023/07/26 13:19:07;;;;;;;0.63;0.20;;;;;;;;;;5091201;28;20599;-80
2023/07/26 13:21:33;;;;;;;3.13;0.50;;;;;;;;;;5092263;28;20419;-80
2023/07/26 13:23:59;;;;;;;1.57;0.40;;;;;;;;;;5086579;28;20208;-83
2023/07/26 13:26:25;;;;;;;1.20;0.30;;;;;;;;;;5071974;28;20399;-81
2023/07/26 13:28:51;;;;;;;0.80;0.30;;;;;;;;;;5072223;28;20843;-79
2023/07/26 13:31:18;;;;;;;1.00;0.30;;;;;;;;;;5072376;28;20416;-79
2023/07/26 13:33:44;;;;;;;1.17;0.20;;;;;;;;;;5072214;28;20540;-82
2023/07/26 13:36:10;;;;;;;0.50;0.20;;;;;;;;;;5070956;28;20411;-78
2023/07/26 13:38:36;;;;;;;1.70;0.23;;;;;;;;;;5072394;28;20170;-80
2023/07/26 13:41:02;;;;;;;2.63;0.20;;;;;;;;;;5071755;28;20418;-78
2023/07/26 13:43:28;;;;;;;1.83;0.70;;;;;;;;;;5071993;28;20221;-79
2023/07/26 13:45:54;;;;;;;1.13;0.20;;;;;;;;;;5070911;28;20185;-79
2023/07/26 13:48:20;;;;;;;1.00;0.30;;;;;;;;;;5072644;28;20583;-80
2023/07/26 13:50:45;;;;;;;2.47;0.30;;;;;;;;;;5075874;28;20184;-79
2023/07/26 13:53:11;;;;;;;1.67;0.40;;;;;;;;;;5087540;28;20230;-79
2023/07/26 13:55:37;;;;;;;2.33;0.40;;;;;;;;;;5095886;28;20513;-83
2023/07/26 13:58:03;;;;;;;1.23;0.30;;;;;;;;;;5095972;28;20164;-80
2023/07/26 14:00:29;;;;;;;1.43;0.40;;;;;;;;;;5095736;28;20172;-79
2023/07/26 14:02:55;;;;;;;0.80;0.60;;;;;;;;;;5095767;28;20210;-80
2023/07/26 14:05:24;;;;;;;1.33;0.57;;;;;;;;;;5095565;28;20243;-80
2023/07/26 14:07:53;;;;;;;0.80;0.30;;;;;;;;;;5094628;28;20592;-84
2023/07/26 14:10:19;;;;;;;1.43;0.20;;;;;;;;;;5095629;28;20422;-80
2023/07/26 14:12:45;;;;;;;1.70;0.30;;;;;;;;;;5086721;28;20419;-84
2023/07/26 14:15:10;;;;;;;0.77;0.30;;;;;;;;;;5085557;28;20195;-79
2023/07/26 14:17:36;;;;;;;1.50;0.47;;;;;;;;;;5087618;28;20464;-77
2023/07/26 14:20:02;;;;;;;1.70;0.67;;;;;;;;;;5076957;28;20650;-81
2023/07/26 14:22:28;;;;;;;1.33;0.43;;;;;;;;;;5080162;28;20183;-82
2023/07/26 14:24:54;;;;;;;0.87;0.30;;;;;;;;;;5083947;28;20626;-78
2023/07/26 14:27:20;;;;;;;1.37;0.30;;;;;;;;;;5094498;28;20639;-84
2023/07/26 14:29:46;;;;;;;1.03;0.20;;;;;;;;;;5079473;28;20180;-78
2023/07/26 14:32:12;;;;;;;1.27;0.83;;;;;;;;;;5075092;28;20527;-79
2023/07/26 14:34:38;;;;;;;0.90;0.60;;;;;;;;;;5075562;28;20181;-80
2023/07/26 14:37:04;;;;;;;1.27;0.43;;;;;;;;;;5075525;28;20241;-80
2023/07/26 14:39:31;;;;;;;1.23;0.43;;;;;;;;;;5075028;28;20175;-79
2023/07/26 14:41:57;;;;;;;1.10;0.30;;;;;;;;;;5075263;28;20407;-78